createdAt,value
2023-02-08T00:29:47.957Z,0
2023-02-08T00:30:28.652Z,0
2023-02-08T00:31:09.718Z,0
2023-02-08T00:31:50.662Z,0
2023-02-08T00:32:31.652Z,0
2023-02-08T00:36:37.549Z,0
2023-02-08T00:37:18.546Z,0
2023-02-08T00:37:59.541Z,0
2023-02-08T00:38:40.564Z,0
2023-02-08T00:39:21.542Z,0
2023-02-08T00:43:27.452Z,0
2023-02-08T00:44:08.443Z,0
2023-02-08T00:44:49.446Z,0
2023-02-08T00:45:30.427Z,0
2023-02-08T00:46:11.399Z,0
2023-02-08T00:50:17.325Z,0
2023-02-08T00:50:58.412Z,0
2023-02-08T00:51:39.415Z,0
2023-02-08T00:52:20.363Z,0
2023-02-08T00:53:01.372Z,0
2023-02-08T00:57:07.312Z,0
2023-02-08T00:57:48.430Z,0
2023-02-08T00:58:29.426Z,0
2023-02-08T00:59:10.530Z,0
2023-02-08T00:59:51.516Z,0
2023-02-08T01:03:57.443Z,0
2023-02-08T01:04:38.551Z,0
2023-02-08T01:05:19.534Z,0
2023-02-08T01:06:00.540Z,0
2023-02-08T01:06:41.529Z,0
2023-02-08T01:10:47.454Z,0
2023-02-08T01:11:29.335Z,0
2023-02-08T01:12:10.324Z,0
2023-02-08T01:12:51.338Z,0
2023-02-08T01:13:32.337Z,0
2023-02-08T01:16:57.380Z,0
2023-02-08T01:17:38.405Z,0
2023-02-08T01:18:19.411Z,0
2023-02-08T01:19:00.288Z,0
2023-02-08T01:19:42.556Z,0
2023-02-08T01:20:22.259Z,0
2023-02-08T01:23:47.245Z,0
2023-02-08T01:24:28.205Z,0
2023-02-08T01:25:09.175Z,0
2023-02-08T01:25:50.152Z,0
2023-02-08T01:26:31.139Z,0
2023-02-08T01:27:12.107Z,0
2023-02-08T01:30:37.230Z,0
2023-02-08T01:31:18.374Z,0
2023-02-08T01:31:59.331Z,0
2023-02-08T01:32:40.338Z,0
2023-02-08T01:33:21.421Z,0
2023-02-08T01:37:27.471Z,0
2023-02-08T01:38:08.447Z,0
2023-02-08T01:38:49.421Z,0
2023-02-08T01:39:30.375Z,0
2023-02-08T01:40:11.444Z,0
2023-02-08T01:40:52.365Z,0
2023-02-08T01:44:17.349Z,0
2023-02-08T01:44:58.295Z,0
2023-02-08T01:45:39.471Z,0
2023-02-08T01:46:20.418Z,0
2023-02-08T01:47:01.442Z,0
2023-02-08T01:51:07.309Z,0
2023-02-08T01:52:29.262Z,0
2023-02-08T01:53:10.262Z,0
2023-02-08T01:53:52.123Z,0
2023-02-08T01:57:17.079Z,0
2023-02-08T01:57:58.095Z,0
2023-02-08T01:58:39.083Z,0
2023-02-08T01:59:20.206Z,0
2023-02-08T02:00:01.179Z,0
2023-02-08T02:00:42.687Z,0
2023-02-08T02:04:07.068Z,0
2023-02-08T02:04:48.005Z,0
2023-02-08T02:05:29.002Z,0
2023-02-08T02:06:09.971Z,0
2023-02-08T02:06:50.948Z,0
2023-02-08T02:07:31.899Z,0
2023-02-08T02:10:56.819Z,0
2023-02-08T02:11:37.816Z,0
2023-02-08T02:12:18.774Z,0
2023-02-08T02:12:59.821Z,0
2023-02-08T02:13:55.737Z,0
2023-02-08T02:14:36.717Z,0
2023-02-08T02:15:17.690Z,0
2023-02-08T02:15:58.674Z,0
2023-02-08T02:16:39.711Z,0
2023-02-08T02:17:20.642Z,0
2023-02-08T02:18:01.676Z,0
2023-02-08T02:21:26.746Z,0
2023-02-08T02:22:07.836Z,0
2023-02-08T02:22:48.859Z,0
2023-02-08T02:23:29.847Z,0
2023-02-08T02:24:10.832Z,0
2023-02-08T02:24:51.805Z,0
2023-02-08T02:28:16.975Z,0
2023-02-08T02:28:57.915Z,0
2023-02-08T02:29:38.874Z,0
2023-02-08T02:30:19.876Z,0
2023-02-08T02:31:00.988Z,0
2023-02-08T02:31:41.862Z,0
2023-02-08T02:34:27.131Z,0
2023-02-08T02:35:08.136Z,0
2023-02-08T02:35:49.096Z,0
2023-02-08T02:36:30.079Z,0
2023-02-08T02:37:11.030Z,0
2023-02-08T02:37:52.057Z,0
2023-02-08T02:41:31.844Z,0
2023-02-08T02:42:12.415Z,0
2023-02-08T02:42:52.877Z,0
2023-02-08T02:43:33.377Z,0
2023-02-08T02:46:55.741Z,0
2023-02-08T02:47:36.255Z,0
2023-02-08T02:48:16.770Z,0
2023-02-08T02:48:57.234Z,0
2023-02-08T02:49:37.763Z,0
2023-02-08T02:50:18.239Z,0
2023-02-08T02:50:58.769Z,0
2023-02-08T02:52:19.765Z,0
2023-02-08T02:53:00.238Z,0
2023-02-08T03:00:25.705Z,0
2023-02-08T03:01:06.219Z,0
2023-02-08T03:01:46.689Z,0
2023-02-08T03:02:27.171Z,0
2023-02-08T03:03:07.681Z,0
2023-02-08T03:03:48.187Z,0
2023-02-08T03:04:28.689Z,0
2023-02-08T03:05:09.147Z,0
2023-02-08T03:05:49.681Z,0
2023-02-08T03:06:30.165Z,0
2023-02-08T03:13:55.562Z,0
2023-02-08T03:14:36.071Z,0
2023-02-08T03:15:16.605Z,0
2023-02-08T03:15:57.104Z,0
2023-02-08T03:16:37.629Z,0
2023-02-08T03:17:18.041Z,0
2023-02-08T03:17:58.599Z,0
2023-02-08T03:18:39.027Z,0
2023-02-08T03:19:19.550Z,0
2023-02-08T03:20:00.058Z,0
2023-02-08T03:20:40.847Z,0
2023-02-08T03:27:25.513Z,0
2023-02-08T03:28:06.020Z,0
2023-02-08T03:28:46.477Z,0
2023-02-08T03:29:26.938Z,0
2023-02-08T03:30:07.446Z,0
2023-02-08T03:30:48.000Z,0
2023-02-08T03:31:28.517Z,0
2023-02-08T03:32:08.929Z,0
2023-02-08T03:32:49.381Z,0
2023-02-08T03:33:29.862Z,0
2023-02-08T03:34:10.345Z,0
2023-02-08T03:40:55.374Z,0
2023-02-08T03:41:35.865Z,0
2023-02-08T03:42:16.336Z,0
2023-02-08T03:42:56.825Z,0
2023-02-08T03:43:37.359Z,0
2023-02-08T03:44:17.830Z,0
2023-02-08T03:44:58.356Z,0
2023-02-08T03:45:38.882Z,0
2023-02-08T03:46:19.375Z,0
2023-02-08T03:46:59.860Z,0
2023-02-08T03:47:40.385Z,0
2023-02-08T03:50:59.597Z,0
2023-02-08T03:51:40.067Z,0
2023-02-08T03:52:20.656Z,0
2023-02-08T03:53:01.080Z,0
2023-02-08T03:53:41.538Z,0
2023-02-08T03:54:22.025Z,0
2023-02-08T03:55:02.544Z,0
2023-02-08T03:55:42.965Z,0
2023-02-08T03:56:23.437Z,0
2023-02-08T03:57:03.926Z,0
2023-02-08T03:57:44.439Z,0
2023-02-08T03:58:24.846Z,0
2023-02-08T03:59:05.329Z,0
2023-02-08T03:59:45.882Z,0
2023-02-08T04:00:26.286Z,0
2023-02-08T04:07:11.264Z,0
2023-02-08T04:07:51.747Z,0
2023-02-08T04:08:32.219Z,0
2023-02-08T04:09:12.700Z,0
2023-02-08T04:09:53.211Z,0
2023-02-08T04:10:33.723Z,0
2023-02-08T04:11:14.224Z,0
2023-02-08T04:11:54.688Z,0
2023-02-08T04:12:35.202Z,0
2023-02-08T04:13:15.629Z,0
2023-02-08T04:13:56.095Z,0
2023-02-08T04:20:41.368Z,0
2023-02-08T04:21:21.583Z,0
2023-02-08T04:22:02.121Z,0
2023-02-08T04:22:42.611Z,0
2023-02-08T04:23:23.116Z,0
2023-02-08T04:24:03.611Z,0
2023-02-08T04:24:44.119Z,0
2023-02-08T04:25:24.641Z,0
2023-02-08T04:26:05.119Z,0
2023-02-08T04:26:45.634Z,0
2023-02-08T04:27:26.131Z,0
2023-02-08T04:34:11.005Z,0
2023-02-08T04:34:51.509Z,0
2023-02-08T04:35:31.948Z,0
2023-02-08T04:36:12.432Z,0
2023-02-08T04:36:52.902Z,0
2023-02-08T04:37:33.435Z,0
2023-02-08T04:38:13.904Z,0
2023-02-08T04:38:54.380Z,0
2023-02-08T04:39:34.886Z,0
2023-02-08T04:40:15.349Z,0
2023-02-08T04:40:55.860Z,0
2023-02-08T04:47:01.156Z,0
2023-02-08T04:47:41.647Z,0
2023-02-08T04:48:22.129Z,0
2023-02-08T04:49:02.636Z,0
2023-02-08T04:49:43.103Z,0
2023-02-08T04:50:23.587Z,0
2023-02-08T04:51:04.075Z,0
2023-02-08T04:51:45.563Z,0
2023-02-08T04:52:25.059Z,0
2023-02-08T04:53:05.581Z,0
2023-02-08T04:53:46.017Z,0
2023-02-08T04:59:51.472Z,0
2023-02-08T05:00:31.910Z,0
2023-02-08T05:01:12.406Z,0
2023-02-08T05:01:52.995Z,0
2023-02-08T05:02:33.353Z,0
2023-02-08T05:03:13.820Z,0
2023-02-08T05:03:54.315Z,0
2023-02-08T05:04:34.812Z,0
2023-02-08T05:05:15.320Z,0
2023-02-08T05:05:55.751Z,0
2023-02-08T05:13:21.299Z,0
2023-02-08T05:14:01.802Z,0
2023-02-08T05:14:42.286Z,0
2023-02-08T05:15:22.789Z,0
2023-02-08T05:16:03.348Z,0
2023-02-08T05:16:43.734Z,0
2023-02-08T05:17:24.207Z,0
2023-02-08T05:18:04.749Z,0
2023-02-08T05:19:25.715Z,0
2023-02-08T05:20:06.224Z,0
2023-02-08T05:26:51.050Z,0
2023-02-08T05:27:31.569Z,0
2023-02-08T05:28:12.088Z,0
2023-02-08T05:28:52.532Z,0
2023-02-08T05:29:33.043Z,0
2023-02-08T05:30:13.566Z,0
2023-02-08T05:30:54.075Z,0
2023-02-08T05:31:34.586Z,0
2023-02-08T05:32:15.033Z,0
2023-02-08T05:32:55.526Z,0
2023-02-08T05:33:35.999Z,0
2023-02-08T05:41:01.422Z,0
2023-02-08T05:41:44.057Z,0
2023-02-08T05:42:24.038Z,0
2023-02-08T05:43:04.519Z,0
2023-02-08T05:43:45.094Z,0
2023-02-08T05:44:25.581Z,0
2023-02-08T05:45:06.042Z,0
2023-02-08T05:51:50.972Z,0
2023-02-08T05:52:31.510Z,0
2023-02-08T06:31:27.331Z,4
2023-02-08T06:32:08.460Z,4
2023-02-08T06:32:49.326Z,4
2023-02-08T06:33:30.328Z,8
2023-02-08T06:34:12.634Z,8
2023-02-08T06:37:12.136Z,8
2023-02-08T06:37:52.617Z,8
2023-02-08T06:38:33.104Z,12
2023-02-08T06:39:13.603Z,12
2023-02-08T06:39:54.113Z,16
2023-02-08T06:40:34.629Z,16
2023-02-08T06:41:15.131Z,20
2023-02-08T06:41:55.721Z,20
2023-02-08T06:42:36.132Z,20
2023-02-08T06:45:14.610Z,28
2023-02-08T06:45:55.666Z,32
2023-02-08T06:46:36.182Z,36
2023-02-08T06:47:16.725Z,36
2023-02-08T06:49:30.177Z,48
2023-02-08T06:50:10.700Z,48
2023-02-08T06:50:51.293Z,52
2023-02-08T06:51:31.763Z,56
2023-02-08T06:52:12.947Z,60
2023-02-08T06:52:53.615Z,64
2023-02-08T06:53:34.108Z,68
2023-02-08T06:54:14.618Z,68
2023-02-08T06:54:55.096Z,76
2023-02-08T07:01:00.419Z,120
2023-02-08T07:01:40.905Z,128
2023-02-08T07:02:21.497Z,132
2023-02-08T07:03:01.957Z,136
2023-02-08T07:03:42.485Z,140
2023-02-08T07:04:23.846Z,152
2023-02-08T07:05:04.161Z,156
2023-02-08T07:05:55.409Z,168
2023-02-08T07:06:25.239Z,176
2023-02-08T07:09:10.123Z,248
2023-02-08T07:09:50.655Z,264
2023-02-08T07:10:31.180Z,292
2023-02-08T07:12:45.199Z,360
2023-02-08T07:13:25.795Z,372
2023-02-08T07:14:06.304Z,412
2023-02-08T07:14:46.857Z,428
2023-02-08T07:15:27.684Z,452
2023-02-08T07:16:08.166Z,476
2023-02-08T07:16:48.865Z,508
2023-02-08T07:17:29.348Z,548
2023-02-08T07:24:12.718Z,904
2023-02-08T07:24:53.491Z,896
2023-02-08T07:25:35.005Z,904
2023-02-08T07:26:15.493Z,880
2023-02-08T07:26:56.139Z,884
2023-02-08T07:27:37.380Z,880
2023-02-08T07:28:20.863Z,896
2023-02-08T07:31:06.450Z,980
2023-02-08T07:31:47.097Z,1012
2023-02-08T07:32:27.780Z,1008
2023-02-08T07:33:08.267Z,1044
2023-02-08T07:37:13.230Z,1188
2023-02-08T07:37:53.707Z,1216
2023-02-08T07:38:36.504Z,1240
2023-02-08T07:39:17.017Z,1280
2023-02-08T07:39:57.532Z,1296
2023-02-08T07:40:38.318Z,1276
2023-02-08T07:43:16.901Z,1276
2023-02-08T07:43:57.400Z,1292
2023-02-08T07:44:38.008Z,1308
2023-02-08T07:45:18.564Z,1328
2023-02-08T07:45:59.299Z,1344
2023-02-08T07:46:39.775Z,1376
2023-02-08T07:50:04.773Z,1308
2023-02-08T07:50:45.310Z,1280
2023-02-08T07:51:25.854Z,1268
2023-02-08T07:52:06.341Z,1212
2023-02-08T07:52:47.948Z,1172
2023-02-08T07:53:28.440Z,1148
2023-02-08T07:54:08.957Z,1140
2023-02-08T07:54:49.527Z,1148
2023-02-08T07:57:31.033Z,1100
2023-02-08T07:58:12.285Z,988
2023-02-08T07:58:54.533Z,896
2023-02-08T07:59:36.304Z,840
2023-02-08T08:01:00.498Z,824
2023-02-08T08:03:54.524Z,820
2023-02-08T08:04:35.055Z,824
2023-02-08T08:05:15.578Z,824
2023-02-08T08:05:56.119Z,824
2023-02-08T08:06:36.627Z,828
2023-02-08T08:07:17.230Z,832
2023-02-08T08:07:57.639Z,832
2023-02-08T08:08:38.200Z,832
2023-02-08T08:09:18.738Z,832
2023-02-08T08:14:43.972Z,852
2023-02-08T08:15:24.484Z,856
2023-02-08T08:16:05.122Z,856
2023-02-08T08:16:45.656Z,860
2023-02-08T08:17:27.363Z,864
2023-02-08T08:18:07.154Z,864
2023-02-08T08:18:47.762Z,868
2023-02-08T08:19:28.291Z,868
2023-02-08T08:20:10.380Z,872
2023-02-08T08:22:54.359Z,884
2023-02-08T08:23:35.072Z,884
2023-02-08T08:24:15.695Z,884
2023-02-08T08:27:35.480Z,896
2023-02-08T08:28:16.339Z,892
2023-02-08T08:28:56.833Z,900
2023-02-08T08:29:38.983Z,896
2023-02-08T08:30:19.591Z,900
2023-02-08T08:35:45.449Z,908
2023-02-08T08:36:25.996Z,908
2023-02-08T08:37:06.521Z,912
2023-02-08T08:37:47.719Z,912
2023-02-08T08:38:30.743Z,912
2023-02-08T08:39:38.255Z,916
2023-02-08T08:43:58.201Z,924
2023-02-08T08:45:53.302Z,928
2023-02-08T08:46:33.963Z,932
2023-02-08T08:47:14.609Z,932
2023-02-08T08:47:55.662Z,932
2023-02-08T08:50:37.972Z,940
2023-02-08T08:51:59.096Z,944
2023-02-08T08:52:39.581Z,944
2023-02-08T08:53:20.385Z,944
2023-02-08T08:54:01.060Z,940
2023-02-08T08:54:41.638Z,944
2023-02-08T08:55:22.315Z,948
2023-02-08T08:56:02.792Z,944
2023-02-08T09:00:48.423Z,944
2023-02-08T09:01:29.002Z,948
2023-02-08T09:02:09.522Z,948
2023-02-08T09:02:50.544Z,948
2023-02-08T09:03:31.098Z,944
2023-02-08T09:04:13.093Z,944
2023-02-08T09:11:56.320Z,936
2023-02-08T09:12:36.806Z,940
2023-02-08T09:13:17.364Z,936
2023-02-08T09:13:58.103Z,936
2023-02-08T09:14:38.736Z,936
2023-02-08T09:15:19.386Z,936
2023-02-08T09:16:01.394Z,932
2023-02-08T09:20:06.060Z,936
2023-02-08T09:20:46.731Z,932
2023-02-08T09:21:27.123Z,932
2023-02-08T09:22:07.650Z,928
2023-02-08T09:23:28.732Z,928
2023-02-08T09:24:11.523Z,924
2023-02-08T09:29:49.433Z,920
2023-02-08T09:30:29.586Z,920
2023-02-08T09:31:10.134Z,924
2023-02-08T09:31:50.622Z,920
2023-02-08T09:32:31.084Z,924
2023-02-08T09:33:11.747Z,920
2023-02-08T09:33:52.289Z,920
2023-02-08T09:34:32.872Z,920
2023-02-08T09:41:18.247Z,912
2023-02-08T09:41:59.546Z,908
2023-02-08T09:42:39.389Z,912
2023-02-08T09:43:19.917Z,908
2023-02-08T09:44:00.433Z,892
2023-02-08T09:44:41.048Z,908
2023-02-08T09:45:21.553Z,908
2023-02-08T09:46:02.107Z,908
2023-02-08T09:46:42.664Z,912
2023-02-08T09:47:23.129Z,908
2023-02-08T09:52:48.143Z,904
2023-02-08T09:56:03.021Z,904
2023-02-08T09:56:43.954Z,904
2023-02-08T09:57:24.736Z,904
2023-02-08T09:58:06.308Z,900
2023-02-08T09:58:46.763Z,900
2023-02-08T09:59:27.862Z,900
2023-02-08T10:04:47.117Z,900
2023-02-08T10:05:27.688Z,900
2023-02-08T10:06:08.286Z,900
2023-02-08T10:06:50.127Z,896
2023-02-08T10:11:49.135Z,888
2023-02-08T10:12:29.768Z,888
2023-02-08T10:13:10.271Z,892
2023-02-08T10:13:50.799Z,888
2023-02-08T10:14:31.446Z,888
2023-02-08T10:15:11.880Z,888
2023-02-08T10:15:52.424Z,884
2023-02-08T10:16:33.220Z,884
2023-02-08T10:17:13.709Z,884
2023-02-08T10:21:19.061Z,880
2023-02-08T10:22:01.129Z,880
2023-02-08T10:22:41.743Z,880
2023-02-08T10:23:22.664Z,876
2023-02-08T10:24:02.847Z,880
2023-02-08T10:25:23.837Z,876
2023-02-08T10:31:28.977Z,872
2023-02-08T10:32:09.465Z,876
2023-02-08T10:32:49.982Z,872
2023-02-08T10:33:30.577Z,872
2023-02-08T10:34:11.149Z,872
2023-02-08T10:34:51.689Z,868
2023-02-08T10:35:32.254Z,872
2023-02-08T10:36:12.752Z,872
2023-02-08T10:36:53.341Z,868
2023-02-08T10:37:34.152Z,872
2023-02-08T10:42:58.726Z,868
2023-02-08T10:43:39.262Z,864
2023-02-08T10:44:19.805Z,864
2023-02-08T10:45:00.371Z,864
2023-02-08T10:45:41.133Z,860
2023-02-08T10:46:21.362Z,864
2023-02-08T10:47:01.886Z,860
2023-02-08T10:47:43.127Z,860
2023-02-08T10:48:23.134Z,860
2023-02-08T10:49:03.968Z,860
2023-02-08T10:55:21.203Z,860
2023-02-08T10:57:40.840Z,856
2023-02-08T10:58:21.128Z,852
2023-02-08T10:59:02.815Z,852
2023-02-08T10:59:43.294Z,856
2023-02-08T11:00:23.816Z,856
2023-02-08T11:03:45.355Z,852
2023-02-08T11:04:27.990Z,848
2023-02-08T11:07:47.400Z,848
2023-02-08T11:08:28.046Z,848
2023-02-08T11:09:08.399Z,848
2023-02-08T11:09:49.425Z,848
2023-02-08T11:10:30.402Z,848
2023-02-08T11:11:11.098Z,844
2023-02-08T11:11:52.904Z,848
2023-02-08T11:14:46.509Z,840
2023-02-08T11:15:19.753Z,840
2023-02-08T11:16:00.635Z,840
2023-02-08T11:16:40.951Z,840
2023-02-08T11:17:23.748Z,840
2023-02-08T11:18:04.391Z,836
2023-02-08T11:20:09.386Z,836
2023-02-08T11:20:50.716Z,836
2023-02-08T11:21:32.325Z,836
2023-02-08T11:25:37.851Z,832
2023-02-08T11:26:18.554Z,832
2023-02-08T11:26:59.498Z,832
2023-02-08T11:27:40.519Z,828
2023-02-08T11:28:21.957Z,832
2023-02-08T11:29:02.355Z,832
2023-02-08T11:31:08.557Z,832
2023-02-08T11:31:48.983Z,828
2023-02-08T11:32:31.375Z,828
2023-02-08T11:33:12.317Z,828
2023-02-08T11:34:38.710Z,824
2023-02-08T11:35:20.686Z,828
2023-02-08T11:36:01.842Z,828
2023-02-08T11:36:42.687Z,828
2023-02-08T11:42:07.486Z,820
2023-02-08T11:42:49.003Z,820
2023-02-08T11:43:29.598Z,820
2023-02-08T11:44:10.166Z,820
2023-02-08T11:44:50.623Z,820
2023-02-08T11:45:31.198Z,816
2023-02-08T11:46:12.193Z,820
2023-02-08T11:46:52.475Z,816
2023-02-08T11:52:17.880Z,812
2023-02-08T11:52:58.988Z,812
2023-02-08T11:53:39.504Z,812
2023-02-08T12:33:02.036Z,792
2023-02-08T12:33:43.577Z,788
2023-02-08T12:34:23.991Z,792
2023-02-08T12:35:04.575Z,788
2023-02-08T12:35:57.553Z,788
2023-02-08T12:36:25.782Z,788
2023-02-08T12:37:06.176Z,788
2023-02-08T12:37:46.858Z,788
2023-02-08T12:42:31.759Z,784
2023-02-08T12:43:12.310Z,784
2023-02-08T12:43:52.987Z,780
2023-02-08T12:44:33.546Z,780
2023-02-08T12:45:15.304Z,780
2023-02-08T12:45:54.746Z,780
2023-02-08T12:46:35.266Z,780
2023-02-08T12:47:15.725Z,780
2023-02-08T12:48:03.931Z,776
2023-02-08T12:53:22.584Z,772
2023-02-08T12:56:36.928Z,776
2023-02-08T12:57:17.332Z,772
2023-02-08T12:57:58.602Z,772
2023-02-08T12:58:39.145Z,772
2023-02-08T12:59:20.748Z,768
2023-02-08T13:00:01.270Z,768
2023-02-08T13:04:46.052Z,768
2023-02-08T13:05:26.602Z,764
2023-02-08T13:06:07.612Z,768
2023-02-08T13:06:47.642Z,764
2023-02-08T13:07:28.191Z,764
2023-02-08T13:08:08.720Z,760
2023-02-08T13:08:49.290Z,760
2023-02-08T13:09:31.613Z,760
2023-02-08T13:10:10.346Z,760
2023-02-08T13:13:00.664Z,760
2023-02-08T13:16:01.092Z,756
2023-02-08T13:16:40.764Z,756
2023-02-08T13:17:22.228Z,756
2023-02-08T13:18:02.823Z,752
2023-02-08T13:18:43.821Z,756
2023-02-08T13:19:23.911Z,752
2023-02-08T13:20:05.333Z,752
2023-02-08T13:22:10.578Z,748
2023-02-08T13:22:51.191Z,748
2023-02-08T13:23:34.736Z,748
2023-02-08T13:24:12.536Z,744
2023-02-08T13:25:06.200Z,744
2023-02-08T13:25:33.788Z,744
2023-02-08T13:26:15.706Z,740
2023-02-08T13:32:20.686Z,732
2023-02-08T13:33:01.179Z,728
2023-02-08T13:33:52.369Z,728
2023-02-08T13:34:22.381Z,720
2023-02-08T13:35:02.774Z,720
2023-02-08T13:38:25.429Z,712
2023-02-08T13:39:06.478Z,708
2023-02-08T13:42:37.002Z,692
2023-02-08T13:43:29.394Z,688
2023-02-08T13:43:59.022Z,688
2023-02-08T13:44:39.458Z,688
2023-02-08T13:48:12.923Z,668
2023-02-08T13:48:53.406Z,660
2023-02-08T13:49:33.906Z,660
2023-02-08T13:50:14.543Z,656
2023-02-08T13:50:54.941Z,652
2023-02-08T13:51:35.465Z,652
2023-02-08T13:52:15.988Z,644
2023-02-08T13:52:56.541Z,644
2023-02-08T13:53:37.139Z,636
2023-02-08T13:58:21.798Z,628
2023-02-08T13:59:02.336Z,624
2023-02-08T13:59:42.773Z,624
2023-02-08T14:00:23.957Z,624
2023-02-08T14:01:04.417Z,628
2023-02-08T14:01:44.925Z,628
2023-02-08T14:02:25.571Z,624
2023-02-08T14:03:05.977Z,624
2023-02-08T14:03:46.506Z,620
2023-02-08T14:04:27.135Z,616
2023-02-08T14:09:51.768Z,604
2023-02-08T14:10:32.404Z,604
2023-02-08T14:11:12.933Z,608
2023-02-08T14:11:53.460Z,608
2023-02-08T14:12:34.763Z,616
2023-02-08T14:13:14.538Z,612
2023-02-08T14:13:55.064Z,616
2023-02-08T14:14:36.440Z,612
2023-02-08T14:15:16.865Z,608
2023-02-08T14:21:53.916Z,600
2023-02-08T14:22:34.167Z,596
2023-02-08T14:23:15.297Z,596
2023-02-08T14:23:56.065Z,596
2023-02-08T14:24:37.893Z,596
2023-02-08T14:25:18.417Z,596
2023-02-08T14:32:03.627Z,596
2023-02-08T14:32:44.114Z,592
2023-02-08T14:33:24.789Z,592
2023-02-08T14:34:05.350Z,592
2023-02-08T14:35:26.392Z,588
2023-02-08T14:36:06.869Z,592
2023-02-08T14:36:47.631Z,596
2023-02-08T14:37:28.005Z,600
2023-02-08T14:45:27.397Z,580
2023-02-08T14:46:08.479Z,580
2023-02-08T14:46:50.313Z,580
2023-02-08T14:47:30.774Z,584
2023-02-08T14:48:14.021Z,580
2023-02-08T14:53:03.939Z,568
2023-02-08T14:53:45.507Z,568
2023-02-08T14:54:25.707Z,568
2023-02-08T14:55:06.155Z,572
2023-02-08T14:55:46.693Z,572
2023-02-08T14:58:19.778Z,580
2023-02-08T14:59:00.272Z,576
2023-02-08T14:59:40.763Z,576
2023-02-08T15:00:21.246Z,576
2023-02-08T15:01:01.865Z,580
2023-02-08T15:01:45.378Z,576
2023-02-08T15:02:22.843Z,576
2023-02-08T15:03:03.344Z,584
2023-02-08T15:03:43.927Z,588
2023-02-08T15:04:24.405Z,596
2023-02-08T15:10:29.465Z,652
2023-02-08T15:11:09.925Z,668
2023-02-08T15:11:50.429Z,684
2023-02-08T15:12:31.002Z,712
2023-02-08T15:13:11.493Z,728
2023-02-08T15:13:52.075Z,744
2023-02-08T15:14:32.619Z,760
2023-02-08T15:15:13.135Z,780
2023-02-08T15:15:54.444Z,792
2023-02-08T15:22:39.532Z,1396
2023-02-08T15:23:20.052Z,1420
2023-02-08T15:24:00.620Z,1432
2023-02-08T15:24:41.068Z,1440
2023-02-08T15:25:21.613Z,1484
2023-02-08T15:26:02.114Z,1512
2023-02-08T15:26:42.670Z,1560
2023-02-08T15:28:03.757Z,1656
2023-02-08T15:28:44.258Z,1684
2023-02-08T15:29:30.165Z,1712
2023-02-08T15:34:49.672Z,1924
2023-02-08T15:35:30.185Z,1972
2023-02-08T15:36:10.688Z,1972
2023-02-08T15:36:51.210Z,1964
2023-02-08T15:37:31.749Z,1940
2023-02-08T15:38:12.269Z,1908
2023-02-08T15:38:52.843Z,1900
2023-02-08T15:39:33.385Z,1888
2023-02-08T15:40:13.879Z,1888
2023-02-08T15:40:54.387Z,1868
2023-02-08T15:46:59.035Z,1608
2023-02-08T15:47:39.464Z,1576
2023-02-08T15:48:19.981Z,1520
2023-02-08T15:49:00.592Z,1400
2023-02-08T15:53:44.160Z,1128
2023-02-08T15:54:24.801Z,1176
2023-02-08T15:55:05.349Z,1188
2023-02-08T15:55:45.832Z,1144
2023-02-08T15:56:36.274Z,1120
2023-02-08T15:57:06.859Z,1084
2023-02-08T15:57:47.394Z,1024
2023-02-08T15:58:27.983Z,968
2023-02-08T15:59:08.696Z,924
2023-02-08T15:59:49.131Z,872
2023-02-08T16:00:34.336Z,844
2023-02-08T16:01:14.935Z,816
2023-02-08T16:01:55.413Z,788
2023-02-08T16:02:35.932Z,768
2023-02-08T16:03:16.546Z,732
2023-02-08T16:03:56.957Z,660
2023-02-08T16:04:37.476Z,560
2023-02-08T16:05:18.017Z,488
2023-02-08T16:05:58.567Z,444
2023-02-08T16:06:39.078Z,412
2023-02-08T16:11:59.639Z,256
2023-02-08T16:12:39.933Z,244
2023-02-08T16:13:20.448Z,236
2023-02-08T16:14:00.938Z,224
2023-02-08T16:20:49.337Z,156
2023-02-08T16:21:29.845Z,148
2023-02-08T16:22:10.328Z,144
2023-02-08T16:22:50.834Z,140
2023-02-08T16:23:31.357Z,132
2023-02-08T16:24:11.856Z,128
2023-02-08T16:24:52.336Z,124
2023-02-08T16:25:33.408Z,116
2023-02-08T16:26:13.958Z,112
2023-02-08T16:32:19.405Z,72
2023-02-08T16:32:59.833Z,68
2023-02-08T16:33:40.358Z,64
2023-02-08T16:34:21.067Z,56
2023-02-08T16:35:01.525Z,52
2023-02-08T16:35:42.004Z,52
2023-02-08T16:36:22.509Z,48
2023-02-08T16:37:03.017Z,44
2023-02-08T16:37:43.508Z,44
2023-02-08T16:38:24.086Z,36
2023-02-08T16:39:04.499Z,36
2023-02-08T16:45:09.465Z,16
2023-02-08T16:45:50.028Z,16
2023-02-08T16:46:30.694Z,12
2023-02-08T16:47:11.398Z,12
2023-02-08T16:47:51.965Z,12
2023-02-08T16:48:32.623Z,12
2023-02-08T16:49:13.197Z,12
2023-02-08T16:49:53.725Z,8
2023-02-08T16:50:34.235Z,8
2023-02-08T16:55:45.637Z,4
2023-02-08T16:56:25.910Z,4
2023-02-08T16:57:06.412Z,4
2023-02-08T16:57:47.208Z,0
2023-02-08T16:58:27.656Z,0
2023-02-08T16:59:08.138Z,4
2023-02-08T16:59:48.587Z,0
2023-02-08T17:00:29.130Z,0
2023-02-08T17:01:09.618Z,0
2023-02-08T17:06:35.100Z,0
2023-02-08T17:07:16.239Z,0
2023-02-08T17:07:56.624Z,0
2023-02-08T17:08:37.116Z,0
2023-02-08T17:09:17.629Z,0
2023-02-08T17:09:58.061Z,0
2023-02-08T17:10:38.535Z,0
2023-02-08T17:11:19.032Z,0
2023-02-08T17:11:59.534Z,0
2023-02-08T17:12:40.083Z,0
2023-02-08T17:15:25.011Z,0
2023-02-08T17:16:05.986Z,0
2023-02-08T17:16:46.443Z,0
2023-02-08T17:17:26.982Z,0
2023-02-08T17:18:08.364Z,0
2023-02-08T17:18:48.757Z,0
2023-02-08T17:19:30.117Z,0
2023-02-08T17:25:35.155Z,0
2023-02-08T17:26:15.702Z,0
2023-02-08T17:26:56.179Z,0
2023-02-08T17:28:17.336Z,0
2023-02-08T17:28:57.764Z,0
2023-02-08T17:29:38.318Z,0
2023-02-08T17:30:19.650Z,0
2023-02-08T17:31:00.239Z,0
2023-02-08T17:35:45.028Z,0
2023-02-08T17:36:25.308Z,0
2023-02-08T17:37:05.842Z,0
2023-02-08T17:37:46.929Z,0
2023-02-08T17:38:28.461Z,0
2023-02-08T17:39:09.106Z,0
2023-02-08T17:39:49.524Z,0
2023-02-08T17:40:30.045Z,0
2023-02-08T17:46:34.945Z,0
2023-02-08T17:47:15.454Z,0
2023-02-08T17:47:55.953Z,0
2023-02-08T17:48:36.549Z,0
2023-02-08T17:49:17.041Z,0
2023-02-08T17:49:57.563Z,0
2023-02-08T17:50:38.096Z,0
2023-02-08T17:51:18.648Z,0
2023-02-08T17:51:59.075Z,0
2023-02-08T17:52:39.589Z,0
2023-02-08T17:53:20.149Z,0
2023-02-08T18:34:37.594Z,0
2023-02-08T18:35:18.018Z,0
2023-02-08T18:35:58.511Z,0
2023-02-08T18:36:38.975Z,0
2023-02-08T18:37:19.454Z,0
2023-02-08T18:38:00.013Z,0
2023-02-08T18:38:40.503Z,0
2023-02-08T18:39:20.973Z,0
2023-02-08T18:40:01.442Z,0
2023-02-08T18:40:42.243Z,0
2023-02-08T18:47:43.819Z,0
2023-02-08T18:48:24.291Z,0
2023-02-08T18:49:04.751Z,0
2023-02-08T18:49:45.248Z,0
2023-02-08T18:50:25.720Z,0
2023-02-08T18:51:06.194Z,0
2023-02-08T18:51:46.651Z,0
2023-02-08T18:52:27.155Z,0
2023-02-08T18:53:07.664Z,0
2023-02-08T18:53:48.129Z,0
2023-02-08T18:54:28.613Z,0
2023-02-08T18:59:53.464Z,0
2023-02-08T19:00:34.354Z,0
2023-02-08T19:01:15.000Z,0
2023-02-08T19:01:55.782Z,0
2023-02-08T19:02:38.618Z,0
2023-02-08T19:03:16.809Z,0
2023-02-08T19:03:57.312Z,0
2023-02-08T19:04:37.885Z,0
2023-02-08T19:05:18.398Z,0
2023-02-08T19:12:43.880Z,0
2023-02-08T19:13:24.345Z,0
2023-02-08T19:14:04.859Z,0
2023-02-08T19:14:45.344Z,0
2023-02-08T19:15:25.855Z,0
2023-02-08T19:16:06.362Z,0
2023-02-08T19:16:46.879Z,0
2023-02-08T19:17:27.364Z,0
2023-02-08T19:18:07.866Z,0
2023-02-08T19:18:48.352Z,0
2023-02-08T19:26:13.853Z,0
2023-02-08T19:26:54.334Z,0
2023-02-08T19:27:34.852Z,0
2023-02-08T19:28:15.394Z,0
2023-02-08T19:28:55.834Z,0
2023-02-08T19:29:36.350Z,0
2023-02-08T19:30:16.864Z,0
2023-02-08T19:30:57.357Z,0
2023-02-08T19:31:37.851Z,0
2023-02-08T19:32:18.333Z,0
2023-02-08T19:32:58.779Z,0
2023-02-08T19:39:03.516Z,0
2023-02-08T19:39:44.125Z,0
2023-02-08T19:40:24.496Z,0
2023-02-08T19:41:05.005Z,0
2023-02-08T19:41:45.496Z,0
2023-02-08T19:42:25.982Z,0
2023-02-08T19:43:06.504Z,0
2023-02-08T19:43:47.000Z,0
2023-02-08T19:44:30.234Z,0
2023-02-08T19:45:07.988Z,0
2023-02-08T19:45:48.582Z,0
2023-02-08T19:52:33.783Z,0
2023-02-08T19:53:14.330Z,0
2023-02-08T19:53:56.865Z,0
2023-02-08T19:54:35.278Z,0
2023-02-08T19:55:15.813Z,0
2023-02-08T19:55:56.304Z,0
2023-02-08T19:56:36.828Z,0
2023-02-08T19:57:17.322Z,0